sensor_id;sensor_type;location;lat;lon;timestamp;temperature;humidity
40932;DHT22;36257;46.052;12.540;2023-01-29T00:01:39;0.70;95.30
40932;DHT22;36257;46.052;12.540;2023-01-29T00:04:04;0.70;95.40
40932;DHT22;36257;46.052;12.540;2023-01-29T00:06:30;0.80;95.30
40932;DHT22;36257;46.052;12.540;2023-01-29T00:08:57;0.80;95.30
40932;DHT22;36257;46.052;12.540;2023-01-29T00:11:22;0.80;95.40
40932;DHT22;36257;46.052;12.540;2023-01-29T00:13:52;0.90;95.40
40932;DHT22;36257;46.052;12.540;2023-01-29T00:16:17;0.90;95.30
40932;DHT22;36257;46.052;12.540;2023-01-29T00:18:43;1.00;95.00
40932;DHT22;36257;46.052;12.540;2023-01-29T00:21:10;1.00;95.00
40932;DHT22;36257;46.052;12.540;2023-01-29T00:23:36;1.00;95.20
40932;DHT22;36257;46.052;12.540;2023-01-29T00:26:02;1.00;95.40
40932;DHT22;36257;46.052;12.540;2023-01-29T00:28:27;1.00;95.30
40932;DHT22;36257;46.052;12.540;2023-01-29T00:30:53;1.00;95.40
40932;DHT22;36257;46.052;12.540;2023-01-29T00:33:19;1.10;95.40
40932;DHT22;36257;46.052;12.540;2023-01-29T00:35:44;1.00;95.30
40932;DHT22;36257;46.052;12.540;2023-01-29T00:38:10;1.00;95.30
40932;DHT22;36257;46.052;12.540;2023-01-29T00:40:39;1.00;95.40
40932;DHT22;36257;46.052;12.540;2023-01-29T00:43:24;1.10;95.50
40932;DHT22;36257;46.052;12.540;2023-01-29T00:46:09;1.10;95.20
40932;DHT22;36257;46.052;12.540;2023-01-29T00:48:35;1.10;95.40
40932;DHT22;36257;46.052;12.540;2023-01-29T00:51:02;1.10;95.50
40932;DHT22;36257;46.052;12.540;2023-01-29T00:53:28;1.10;95.30
40932;DHT22;36257;46.052;12.540;2023-01-29T00:55:54;1.20;95.20
40932;DHT22;36257;46.052;12.540;2023-01-29T00:58:20;1.20;95.10
40932;DHT22;36257;46.052;12.540;2023-01-29T01:00:47;1.20;94.90
40932;DHT22;36257;46.052;12.540;2023-01-29T01:03:14;1.30;94.60
40932;DHT22;36257;46.052;12.540;2023-01-29T01:05:39;1.30;94.50
40932;DHT22;36257;46.052;12.540;2023-01-29T01:08:07;1.30;94.60
40932;DHT22;36257;46.052;12.540;2023-01-29T01:11:04;1.30;94.60
40932;DHT22;36257;46.052;12.540;2023-01-29T01:13:32;1.40;94.40
40932;DHT22;36257;46.052;12.540;2023-01-29T01:15:58;1.40;94.50
40932;DHT22;36257;46.052;12.540;2023-01-29T01:18:23;1.50;94.40
40932;DHT22;36257;46.052;12.540;2023-01-29T01:20:49;1.50;94.30
40932;DHT22;36257;46.052;12.540;2023-01-29T01:23:17;1.50;94.40
40932;DHT22;36257;46.052;12.540;2023-01-29T01:25:43;1.50;94.40
40932;DHT22;36257;46.052;12.540;2023-01-29T01:28:09;1.50;94.10
40932;DHT22;36257;46.052;12.540;2023-01-29T01:30:35;1.50;94.10
40932;DHT22;36257;46.052;12.540;2023-01-29T01:33:01;1.50;94.40
40932;DHT22;36257;46.052;12.540;2023-01-29T01:35:26;1.50;94.50
40932;DHT22;36257;46.052;12.540;2023-01-29T01:37:52;1.50;94.40
40932;DHT22;36257;46.052;12.540;2023-01-29T01:40:20;1.60;94.50
40932;DHT22;36257;46.052;12.540;2023-01-29T01:42:52;1.50;94.50
40932;DHT22;36257;46.052;12.540;2023-01-29T01:45:32;1.50;94.50
40932;DHT22;36257;46.052;12.540;2023-01-29T01:48:21;1.50;94.50
40932;DHT22;36257;46.052;12.540;2023-01-29T01:51:01;1.50;94.50
40932;DHT22;36257;46.052;12.540;2023-01-29T01:53:39;1.60;94.40
40932;DHT22;36257;46.052;12.540;2023-01-29T01:56:09;1.60;94.70
40932;DHT22;36257;46.052;12.540;2023-01-29T01:58:40;1.50;95.00
40932;DHT22;36257;46.052;12.540;2023-01-29T02:01:07;1.40;95.20
40932;DHT22;36257;46.052;12.540;2023-01-29T02:03:36;1.40;95.10
40932;DHT22;36257;46.052;12.540;2023-01-29T02:06:21;1.50;95.10
40932;DHT22;36257;46.052;12.540;2023-01-29T02:09:11;1.50;94.80
40932;DHT22;36257;46.052;12.540;2023-01-29T02:12:18;1.60;94.70
40932;DHT22;36257;46.052;12.540;2023-01-29T02:14:45;1.60;94.50
40932;DHT22;36257;46.052;12.540;2023-01-29T02:17:13;1.60;94.40
40932;DHT22;36257;46.052;12.540;2023-01-29T02:31:29;1.60;92.60
40932;DHT22;36257;46.052;12.540;2023-01-29T02:34:12;1.60;92.60
40932;DHT22;36257;46.052;12.540;2023-01-29T02:37:02;1.70;93.00
40932;DHT22;36257;46.052;12.540;2023-01-29T02:40:00;1.60;93.40
40932;DHT22;36257;46.052;12.540;2023-01-29T02:42:36;1.60;93.40
40932;DHT22;36257;46.052;12.540;2023-01-29T02:45:20;1.60;93.40
40932;DHT22;36257;46.052;12.540;2023-01-29T02:55:46;1.70;93.80
40932;DHT22;36257;46.052;12.540;2023-01-29T02:58:35;1.70;93.70
40932;DHT22;36257;46.052;12.540;2023-01-29T03:01:08;1.70;93.70
40932;DHT22;36257;46.052;12.540;2023-01-29T03:03:40;1.60;93.90
40932;DHT22;36257;46.052;12.540;2023-01-29T03:06:23;1.60;94.00
40932;DHT22;36257;46.052;12.540;2023-01-29T03:09:03;1.60;93.90
40932;DHT22;36257;46.052;12.540;2023-01-29T03:11:41;1.60;94.00
40932;DHT22;36257;46.052;12.540;2023-01-29T03:14:12;1.60;94.00
40932;DHT22;36257;46.052;12.540;2023-01-29T03:16:46;1.60;94.00
40932;DHT22;36257;46.052;12.540;2023-01-29T03:19:37;1.50;94.10
40932;DHT22;36257;46.052;12.540;2023-01-29T03:22:05;1.60;94.20
40932;DHT22;36257;46.052;12.540;2023-01-29T03:24:54;1.60;94.00
40932;DHT22;36257;46.052;12.540;2023-01-29T03:30:31;1.60;94.20
40932;DHT22;36257;46.052;12.540;2023-01-29T03:33:19;1.60;94.20
40932;DHT22;36257;46.052;12.540;2023-01-29T03:35:49;1.60;94.10
40932;DHT22;36257;46.052;12.540;2023-01-29T03:38:18;1.60;94.30
40932;DHT22;36257;46.052;12.540;2023-01-29T03:40:51;1.60;94.40
40932;DHT22;36257;46.052;12.540;2023-01-29T03:46:14;1.60;94.40
40932;DHT22;36257;46.052;12.540;2023-01-29T03:54:38;1.60;94.20
40932;DHT22;36257;46.052;12.540;2023-01-29T03:57:37;1.60;94.10
40932;DHT22;36257;46.052;12.540;2023-01-29T04:00:37;1.60;94.10
40932;DHT22;36257;46.052;12.540;2023-01-29T04:05:44;1.70;93.90
40932;DHT22;36257;46.052;12.540;2023-01-29T04:08:15;1.70;93.90
40932;DHT22;36257;46.052;12.540;2023-01-29T04:10:42;1.70;93.90
40932;DHT22;36257;46.052;12.540;2023-01-29T04:13:10;1.70;94.00
40932;DHT22;36257;46.052;12.540;2023-01-29T04:15:43;1.70;94.10
40932;DHT22;36257;46.052;12.540;2023-01-29T04:18:10;1.70;94.30
40932;DHT22;36257;46.052;12.540;2023-01-29T04:20:36;1.80;94.20
40932;DHT22;36257;46.052;12.540;2023-01-29T04:23:05;1.70;94.20
40932;DHT22;36257;46.052;12.540;2023-01-29T04:25:42;1.70;94.30
40932;DHT22;36257;46.052;12.540;2023-01-29T04:28:26;1.80;94.40
40932;DHT22;36257;46.052;12.540;2023-01-29T04:30:59;1.80;94.10
40932;DHT22;36257;46.052;12.540;2023-01-29T04:36:21;1.80;94.20
40932;DHT22;36257;46.052;12.540;2023-01-29T04:44:58;1.90;94.40
40932;DHT22;36257;46.052;12.540;2023-01-29T04:47:34;1.90;94.40
40932;DHT22;36257;46.052;12.540;2023-01-29T04:52:54;1.90;94.50
40932;DHT22;36257;46.052;12.540;2023-01-29T04:55:37;1.90;94.40
40932;DHT22;36257;46.052;12.540;2023-01-29T05:00:54;1.90;94.60
40932;DHT22;36257;46.052;12.540;2023-01-29T05:03:22;1.90;94.70
40932;DHT22;36257;46.052;12.540;2023-01-29T05:05:49;1.90;94.70
40932;DHT22;36257;46.052;12.540;2023-01-29T05:08:19;1.90;94.60
40932;DHT22;36257;46.052;12.540;2023-01-29T05:10:47;1.90;94.40
40932;DHT22;36257;46.052;12.540;2023-01-29T05:13:14;1.90;94.40
40932;DHT22;36257;46.052;12.540;2023-01-29T05:16:01;1.90;94.60
40932;DHT22;36257;46.052;12.540;2023-01-29T05:18:29;1.90;94.30
40932;DHT22;36257;46.052;12.540;2023-01-29T05:20:58;1.90;94.30
40932;DHT22;36257;46.052;12.540;2023-01-29T05:23:26;2.00;94.30
40932;DHT22;36257;46.052;12.540;2023-01-29T05:25:52;1.90;94.50
40932;DHT22;36257;46.052;12.540;2023-01-29T05:28:18;1.90;94.40
40932;DHT22;36257;46.052;12.540;2023-01-29T05:30:49;1.90;94.80
40932;DHT22;36257;46.052;12.540;2023-01-29T05:33:22;1.90;94.60
40932;DHT22;36257;46.052;12.540;2023-01-29T05:35:48;2.00;94.50
40932;DHT22;36257;46.052;12.540;2023-01-29T05:38:15;2.00;94.50
40932;DHT22;36257;46.052;12.540;2023-01-29T05:40:41;1.90;94.90
40932;DHT22;36257;46.052;12.540;2023-01-29T05:43:18;1.90;95.00
40932;DHT22;36257;46.052;12.540;2023-01-29T05:45:57;1.90;94.90
40932;DHT22;36257;46.052;12.540;2023-01-29T05:48:23;1.80;94.70
40932;DHT22;36257;46.052;12.540;2023-01-29T05:50:49;1.80;94.70
40932;DHT22;36257;46.052;12.540;2023-01-29T05:53:15;1.80;94.50
40932;DHT22;36257;46.052;12.540;2023-01-29T05:55:46;1.80;94.40
40932;DHT22;36257;46.052;12.540;2023-01-29T05:58:12;1.80;94.40
40932;DHT22;36257;46.052;12.540;2023-01-29T06:00:39;1.90;94.40
40932;DHT22;36257;46.052;12.540;2023-01-29T06:03:05;1.80;94.50
40932;DHT22;36257;46.052;12.540;2023-01-29T06:05:30;1.70;94.90
40932;DHT22;36257;46.052;12.540;2023-01-29T06:07:56;1.70;95.20
40932;DHT22;36257;46.052;12.540;2023-01-29T06:10:22;1.70;94.70
40932;DHT22;36257;46.052;12.540;2023-01-29T06:12:47;1.60;94.90
40932;DHT22;36257;46.052;12.540;2023-01-29T06:15:13;1.50;95.10
40932;DHT22;36257;46.052;12.540;2023-01-29T06:17:44;1.50;95.00
40932;DHT22;36257;46.052;12.540;2023-01-29T06:20:09;1.50;94.70
40932;DHT22;36257;46.052;12.540;2023-01-29T06:22:35;1.50;94.40
40932;DHT22;36257;46.052;12.540;2023-01-29T06:25:01;1.50;94.30
40932;DHT22;36257;46.052;12.540;2023-01-29T06:27:27;1.50;94.40
40932;DHT22;36257;46.052;12.540;2023-01-29T06:29:52;1.40;94.40
40932;DHT22;36257;46.052;12.540;2023-01-29T06:32:18;1.30;94.50
40932;DHT22;36257;46.052;12.540;2023-01-29T06:34:44;1.30;94.60
40932;DHT22;36257;46.052;12.540;2023-01-29T06:37:09;1.20;94.60
40932;DHT22;36257;46.052;12.540;2023-01-29T06:39:35;1.10;94.70
40932;DHT22;36257;46.052;12.540;2023-01-29T06:42:00;1.10;94.80
40932;DHT22;36257;46.052;12.540;2023-01-29T06:44:26;1.10;94.70
40932;DHT22;36257;46.052;12.540;2023-01-29T06:46:52;1.00;94.60
40932;DHT22;36257;46.052;12.540;2023-01-29T06:49:17;1.10;94.50
40932;DHT22;36257;46.052;12.540;2023-01-29T06:51:43;1.00;94.30
40932;DHT22;36257;46.052;12.540;2023-01-29T06:54:09;1.00;94.20
40932;DHT22;36257;46.052;12.540;2023-01-29T06:56:35;1.00;94.10
40932;DHT22;36257;46.052;12.540;2023-01-29T06:59:00;0.90;94.00
40932;DHT22;36257;46.052;12.540;2023-01-29T07:01:26;0.90;94.30
40932;DHT22;36257;46.052;12.540;2023-01-29T07:03:52;0.90;94.20
40932;DHT22;36257;46.052;12.540;2023-01-29T07:06:18;0.80;94.40
40932;DHT22;36257;46.052;12.540;2023-01-29T07:08:43;0.80;94.80
40932;DHT22;36257;46.052;12.540;2023-01-29T07:11:09;0.70;95.10
40932;DHT22;36257;46.052;12.540;2023-01-29T07:13:35;0.70;95.30
40932;DHT22;36257;46.052;12.540;2023-01-29T07:16:03;0.80;95.20
40932;DHT22;36257;46.052;12.540;2023-01-29T07:18:30;0.90;94.80
40932;DHT22;36257;46.052;12.540;2023-01-29T07:20:56;1.00;94.50
40932;DHT22;36257;46.052;12.540;2023-01-29T07:23:23;1.00;94.40
40932;DHT22;36257;46.052;12.540;2023-01-29T07:25:49;1.10;94.40
40932;DHT22;36257;46.052;12.540;2023-01-29T07:28:16;1.20;94.00
40932;DHT22;36257;46.052;12.540;2023-01-29T07:30:42;1.30;93.50
40932;DHT22;36257;46.052;12.540;2023-01-29T07:33:08;1.30;93.30
40932;DHT22;36257;46.052;12.540;2023-01-29T07:35:39;1.40;93.10
40932;DHT22;36257;46.052;12.540;2023-01-29T07:38:05;1.50;92.70
40932;DHT22;36257;46.052;12.540;2023-01-29T07:40:31;1.60;92.80
40932;DHT22;36257;46.052;12.540;2023-01-29T07:42:59;1.60;92.50
40932;DHT22;36257;46.052;12.540;2023-01-29T07:45:24;1.70;92.50
40932;DHT22;36257;46.052;12.540;2023-01-29T07:47:52;1.80;92.50
40932;DHT22;36257;46.052;12.540;2023-01-29T07:50:18;2.00;92.10
40932;DHT22;36257;46.052;12.540;2023-01-29T07:52:44;2.10;91.80
40932;DHT22;36257;46.052;12.540;2023-01-29T07:55:09;2.20;91.40
40932;DHT22;36257;46.052;12.540;2023-01-29T07:57:35;2.40;91.00
40932;DHT22;36257;46.052;12.540;2023-01-29T08:00:01;2.60;90.60
40932;DHT22;36257;46.052;12.540;2023-01-29T08:02:26;2.80;90.00
40932;DHT22;36257;46.052;12.540;2023-01-29T08:04:52;3.00;89.40
40932;DHT22;36257;46.052;12.540;2023-01-29T08:07:18;3.20;88.70
40932;DHT22;36257;46.052;12.540;2023-01-29T08:09:43;3.50;88.40
40932;DHT22;36257;46.052;12.540;2023-01-29T08:12:09;3.70;87.70
40932;DHT22;36257;46.052;12.540;2023-01-29T08:14:34;4.00;87.30
40932;DHT22;36257;46.052;12.540;2023-01-29T08:17:00;4.30;86.70
40932;DHT22;36257;46.052;12.540;2023-01-29T08:19:26;4.50;85.00
40932;DHT22;36257;46.052;12.540;2023-01-29T08:21:51;4.90;81.70
40932;DHT22;36257;46.052;12.540;2023-01-29T08:24:17;5.10;79.00
40932;DHT22;36257;46.052;12.540;2023-01-29T08:26:43;5.30;78.90
40932;DHT22;36257;46.052;12.540;2023-01-29T08:29:10;5.50;79.80
40932;DHT22;36257;46.052;12.540;2023-01-29T08:31:36;5.70;78.40
40932;DHT22;36257;46.052;12.540;2023-01-29T08:34:01;5.80;76.90
40932;DHT22;36257;46.052;12.540;2023-01-29T08:36:27;6.00;77.90
40932;DHT22;36257;46.052;12.540;2023-01-29T08:38:53;6.10;77.10
40932;DHT22;36257;46.052;12.540;2023-01-29T08:41:18;6.20;77.20
40932;DHT22;36257;46.052;12.540;2023-01-29T08:43:44;6.30;76.40
40932;DHT22;36257;46.052;12.540;2023-01-29T08:46:10;6.40;75.00
40932;DHT22;36257;46.052;12.540;2023-01-29T08:48:36;6.50;75.70
40932;DHT22;36257;46.052;12.540;2023-01-29T08:51:03;6.60;74.40
40932;DHT22;36257;46.052;12.540;2023-01-29T08:53:29;6.70;76.40
40932;DHT22;36257;46.052;12.540;2023-01-29T08:55:55;6.90;75.90
40932;DHT22;36257;46.052;12.540;2023-01-29T08:58:20;7.20;75.60
40932;DHT22;36257;46.052;12.540;2023-01-29T09:00:46;7.20;73.90
40932;DHT22;36257;46.052;12.540;2023-01-29T09:03:12;7.30;72.80
40932;DHT22;36257;46.052;12.540;2023-01-29T09:05:39;7.40;74.40
40932;DHT22;36257;46.052;12.540;2023-01-29T09:08:05;7.40;74.40
40932;DHT22;36257;46.052;12.540;2023-01-29T09:10:31;7.60;73.50
40932;DHT22;36257;46.052;12.540;2023-01-29T09:12:57;7.60;70.90
40932;DHT22;36257;46.052;12.540;2023-01-29T09:15:23;7.60;72.40
40932;DHT22;36257;46.052;12.540;2023-01-29T09:17:49;7.40;72.40
40932;DHT22;36257;46.052;12.540;2023-01-29T09:20:15;7.30;73.40
40932;DHT22;36257;46.052;12.540;2023-01-29T09:22:41;7.40;73.30
40932;DHT22;36257;46.052;12.540;2023-01-29T09:25:08;7.40;72.60
40932;DHT22;36257;46.052;12.540;2023-01-29T09:27:34;7.40;73.00
40932;DHT22;36257;46.052;12.540;2023-01-29T09:29:59;7.40;72.20
40932;DHT22;36257;46.052;12.540;2023-01-29T09:32:25;7.60;71.60
40932;DHT22;36257;46.052;12.540;2023-01-29T09:34:50;7.90;71.00
40932;DHT22;36257;46.052;12.540;2023-01-29T09:37:16;8.00;70.80
40932;DHT22;36257;46.052;12.540;2023-01-29T09:39:42;8.10;70.60
40932;DHT22;36257;46.052;12.540;2023-01-29T09:42:33;8.30;71.20
40932;DHT22;36257;46.052;12.540;2023-01-29T09:45:05;8.50;69.60
40932;DHT22;36257;46.052;12.540;2023-01-29T09:47:35;8.30;69.20
40932;DHT22;36257;46.052;12.540;2023-01-29T09:52:33;8.30;68.90
40932;DHT22;36257;46.052;12.540;2023-01-29T09:55:25;8.40;69.20
40932;DHT22;36257;46.052;12.540;2023-01-29T09:57:58;8.30;69.10
40932;DHT22;36257;46.052;12.540;2023-01-29T10:00:55;8.30;70.70
40932;DHT22;36257;46.052;12.540;2023-01-29T10:14:29;8.90;68.40
40932;DHT22;36257;46.052;12.540;2023-01-29T10:17:19;8.90;70.80
40932;DHT22;36257;46.052;12.540;2023-01-29T10:20:12;9.10;68.60
40932;DHT22;36257;46.052;12.540;2023-01-29T10:25:44;10.10;68.30
40932;DHT22;36257;46.052;12.540;2023-01-29T10:28:21;10.30;66.80
40932;DHT22;36257;46.052;12.540;2023-01-29T10:30:50;10.20;66.60
40932;DHT22;36257;46.052;12.540;2023-01-29T10:33:39;10.30;65.50
40932;DHT22;36257;46.052;12.540;2023-01-29T10:36:09;10.10;66.70
40932;DHT22;36257;46.052;12.540;2023-01-29T10:38:45;10.20;67.40
40932;DHT22;36257;46.052;12.540;2023-01-29T10:53:00;10.20;64.80
40932;DHT22;36257;46.052;12.540;2023-01-29T10:55:48;10.60;66.50
40932;DHT22;36257;46.052;12.540;2023-01-29T11:00:59;11.10;63.40
40932;DHT22;36257;46.052;12.540;2023-01-29T11:03:27;10.80;64.90
40932;DHT22;36257;46.052;12.540;2023-01-29T11:08:47;11.00;64.30
40932;DHT22;36257;46.052;12.540;2023-01-29T11:11:18;10.70;63.20
40932;DHT22;36257;46.052;12.540;2023-01-29T11:13:59;10.80;66.90
40932;DHT22;36257;46.052;12.540;2023-01-29T11:16:29;10.90;65.20
40932;DHT22;36257;46.052;12.540;2023-01-29T11:18:59;10.40;64.70
40932;DHT22;36257;46.052;12.540;2023-01-29T11:21:27;10.40;64.90
40932;DHT22;36257;46.052;12.540;2023-01-29T11:24:13;10.50;66.10
40932;DHT22;36257;46.052;12.540;2023-01-29T11:26:45;11.00;66.60
40932;DHT22;36257;46.052;12.540;2023-01-29T11:29:30;11.20;63.10
40932;DHT22;36257;46.052;12.540;2023-01-29T11:31:58;11.50;64.20
40932;DHT22;36257;46.052;12.540;2023-01-29T11:34:25;11.30;64.20
40932;DHT22;36257;46.052;12.540;2023-01-29T11:37:02;11.70;64.80
40932;DHT22;36257;46.052;12.540;2023-01-29T11:39:30;12.10;64.10
40932;DHT22;36257;46.052;12.540;2023-01-29T11:42:03;11.70;61.80
40932;DHT22;36257;46.052;12.540;2023-01-29T11:49:37;11.60;64.90
40932;DHT22;36257;46.052;12.540;2023-01-29T11:52:08;12.10;63.90
40932;DHT22;36257;46.052;12.540;2023-01-29T11:54:47;12.30;63.70
40932;DHT22;36257;46.052;12.540;2023-01-29T11:57:33;12.30;61.40
40932;DHT22;36257;46.052;12.540;2023-01-29T12:05:30;11.50;65.00
40932;DHT22;36257;46.052;12.540;2023-01-29T12:07:57;11.80;64.10
40932;DHT22;36257;46.052;12.540;2023-01-29T12:10:35;11.80;63.80
40932;DHT22;36257;46.052;12.540;2023-01-29T12:15:44;11.80;65.40
40932;DHT22;36257;46.052;12.540;2023-01-29T12:21:17;12.30;62.70
40932;DHT22;36257;46.052;12.540;2023-01-29T12:24:00;12.30;63.20
40932;DHT22;36257;46.052;12.540;2023-01-29T12:26:54;12.80;64.00
40932;DHT22;36257;46.052;12.540;2023-01-29T12:34:57;12.70;59.90
40932;DHT22;36257;46.052;12.540;2023-01-29T12:38:29;12.10;61.10
40932;DHT22;36257;46.052;12.540;2023-01-29T12:40:45;11.70;61.90
40932;DHT22;36257;46.052;12.540;2023-01-29T12:43:21;11.80;62.70
40932;DHT22;36257;46.052;12.540;2023-01-29T12:45:53;11.90;63.10
40932;DHT22;36257;46.052;12.540;2023-01-29T12:48:41;12.20;64.60
40932;DHT22;36257;46.052;12.540;2023-01-29T12:51:17;12.50;63.40
40932;DHT22;36257;46.052;12.540;2023-01-29T12:53:54;12.10;61.90
40932;DHT22;36257;46.052;12.540;2023-01-29T12:56:37;11.60;63.00
40932;DHT22;36257;46.052;12.540;2023-01-29T13:01:57;11.60;62.70
40932;DHT22;36257;46.052;12.540;2023-01-29T13:06:56;11.80;62.90
40932;DHT22;36257;46.052;12.540;2023-01-29T13:09:29;12.10;64.30
40932;DHT22;36257;46.052;12.540;2023-01-29T13:12:06;12.80;63.30
40932;DHT22;36257;46.052;12.540;2023-01-29T13:14:38;13.20;60.90
40932;DHT22;36257;46.052;12.540;2023-01-29T13:19:45;12.70;61.40
40932;DHT22;36257;46.052;12.540;2023-01-29T13:22:28;12.70;61.90
40932;DHT22;36257;46.052;12.540;2023-01-29T13:24:55;12.00;61.40
40932;DHT22;36257;46.052;12.540;2023-01-29T13:27:28;11.90;63.40
40932;DHT22;36257;46.052;12.540;2023-01-29T13:29:54;11.60;63.30
40932;DHT22;36257;46.052;12.540;2023-01-29T13:32:31;11.70;63.50
40932;DHT22;36257;46.052;12.540;2023-01-29T13:35:12;12.10;62.30
40932;DHT22;36257;46.052;12.540;2023-01-29T13:37:47;12.70;62.10
40932;DHT22;36257;46.052;12.540;2023-01-29T13:40:24;12.40;61.20
40932;DHT22;36257;46.052;12.540;2023-01-29T13:42:51;12.00;62.80
40932;DHT22;36257;46.052;12.540;2023-01-29T13:45:24;12.40;63.00
40932;DHT22;36257;46.052;12.540;2023-01-29T13:47:53;12.60;61.80
40932;DHT22;36257;46.052;12.540;2023-01-29T13:50:37;12.60;62.00
40932;DHT22;36257;46.052;12.540;2023-01-29T13:53:05;12.40;62.00
40932;DHT22;36257;46.052;12.540;2023-01-29T13:55:37;12.50;62.40
40932;DHT22;36257;46.052;12.540;2023-01-29T13:58:05;12.70;62.30
40932;DHT22;36257;46.052;12.540;2023-01-29T14:00:47;12.50;61.80
40932;DHT22;36257;46.052;12.540;2023-01-29T14:13:40;11.20;64.00
40932;DHT22;36257;46.052;12.540;2023-01-29T14:18:35;11.00;65.10
40932;DHT22;36257;46.052;12.540;2023-01-29T14:23:49;10.60;65.70
40932;DHT22;36257;46.052;12.540;2023-01-29T14:31:50;10.50;66.40
40932;DHT22;36257;46.052;12.540;2023-01-29T14:34:24;10.60;66.70
40932;DHT22;36257;46.052;12.540;2023-01-29T14:36:56;10.70;66.20
40932;DHT22;36257;46.052;12.540;2023-01-29T14:39:32;10.60;66.60
40932;DHT22;36257;46.052;12.540;2023-01-29T14:42:01;10.20;66.30
40932;DHT22;36257;46.052;12.540;2023-01-29T14:52:50;10.60;67.60
40932;DHT22;36257;46.052;12.540;2023-01-29T14:57:48;10.40;66.80
40932;DHT22;36257;46.052;12.540;2023-01-29T15:00:27;10.10;67.60
40932;DHT22;36257;46.052;12.540;2023-01-29T15:02:54;9.80;68.50
40932;DHT22;36257;46.052;12.540;2023-01-29T15:05:36;9.60;68.70
40932;DHT22;36257;46.052;12.540;2023-01-29T15:10:47;9.40;69.60
40932;DHT22;36257;46.052;12.540;2023-01-29T15:13:51;9.30;70.00
40932;DHT22;36257;46.052;12.540;2023-01-29T15:16:29;9.00;70.00
40932;DHT22;36257;46.052;12.540;2023-01-29T15:19:16;8.70;70.30
40932;DHT22;36257;46.052;12.540;2023-01-29T15:24:28;8.10;73.20
40932;DHT22;36257;46.052;12.540;2023-01-29T15:26:54;8.00;73.80
40932;DHT22;36257;46.052;12.540;2023-01-29T15:29:26;7.80;74.30
40932;DHT22;36257;46.052;12.540;2023-01-29T15:31:53;7.70;74.10
40932;DHT22;36257;46.052;12.540;2023-01-29T15:34:19;7.60;74.20
40932;DHT22;36257;46.052;12.540;2023-01-29T15:36:46;7.60;74.20
40932;DHT22;36257;46.052;12.540;2023-01-29T15:41:41;7.30;75.10
40932;DHT22;36257;46.052;12.540;2023-01-29T15:44:13;7.10;76.10
40932;DHT22;36257;46.052;12.540;2023-01-29T15:46:42;6.90;76.00
40932;DHT22;36257;46.052;12.540;2023-01-29T15:49:17;6.80;76.30
40932;DHT22;36257;46.052;12.540;2023-01-29T15:51:45;6.90;77.60
40932;DHT22;36257;46.052;12.540;2023-01-29T15:54:12;6.90;77.90
40932;DHT22;36257;46.052;12.540;2023-01-29T15:56:46;6.80;78.40
40932;DHT22;36257;46.052;12.540;2023-01-29T15:59:31;6.80;78.50
40932;DHT22;36257;46.052;12.540;2023-01-29T16:02:24;6.80;78.20
40932;DHT22;36257;46.052;12.540;2023-01-29T16:04:52;6.70;78.00
40932;DHT22;36257;46.052;12.540;2023-01-29T16:07:19;6.60;78.30
40932;DHT22;36257;46.052;12.540;2023-01-29T16:09:45;6.60;78.60
40932;DHT22;36257;46.052;12.540;2023-01-29T16:12:12;6.50;78.50
40932;DHT22;36257;46.052;12.540;2023-01-29T16:14:38;6.40;78.70
40932;DHT22;36257;46.052;12.540;2023-01-29T16:17:28;6.30;78.90
40932;DHT22;36257;46.052;12.540;2023-01-29T16:19:58;6.10;79.30
40932;DHT22;36257;46.052;12.540;2023-01-29T16:22:35;6.00;79.70
40932;DHT22;36257;46.052;12.540;2023-01-29T16:27:29;5.70;80.60
40932;DHT22;36257;46.052;12.540;2023-01-29T16:29:56;5.50;81.10
40932;DHT22;36257;46.052;12.540;2023-01-29T16:32:23;5.30;81.70
40932;DHT22;36257;46.052;12.540;2023-01-29T16:34:49;5.20;82.20
40932;DHT22;36257;46.052;12.540;2023-01-29T16:37:26;5.00;82.70
40932;DHT22;36257;46.052;12.540;2023-01-29T16:39:52;4.90;83.10
40932;DHT22;36257;46.052;12.540;2023-01-29T16:42:24;4.90;83.30
40932;DHT22;36257;46.052;12.540;2023-01-29T16:44:51;4.80;83.30
40932;DHT22;36257;46.052;12.540;2023-01-29T16:47:36;4.80;83.40
40932;DHT22;36257;46.052;12.540;2023-01-29T16:50:36;4.70;83.60
40932;DHT22;36257;46.052;12.540;2023-01-29T16:53:12;4.70;83.90
40932;DHT22;36257;46.052;12.540;2023-01-29T16:55:41;4.60;84.00
40932;DHT22;36257;46.052;12.540;2023-01-29T16:58:19;4.60;84.20
40932;DHT22;36257;46.052;12.540;2023-01-29T17:01:08;4.50;84.10
40932;DHT22;36257;46.052;12.540;2023-01-29T17:03:36;4.40;84.40
40932;DHT22;36257;46.052;12.540;2023-01-29T17:08:38;4.20;85.50
40932;DHT22;36257;46.052;12.540;2023-01-29T17:11:05;4.10;85.80
40932;DHT22;36257;46.052;12.540;2023-01-29T17:13:43;4.00;85.90
40932;DHT22;36257;46.052;12.540;2023-01-29T17:16:27;4.00;85.70
40932;DHT22;36257;46.052;12.540;2023-01-29T17:18:53;4.00;85.70
40932;DHT22;36257;46.052;12.540;2023-01-29T17:21:19;3.90;85.90
40932;DHT22;36257;46.052;12.540;2023-01-29T17:23:45;3.80;86.20
40932;DHT22;36257;46.052;12.540;2023-01-29T17:26:12;3.80;86.60
40932;DHT22;36257;46.052;12.540;2023-01-29T17:28:39;3.80;86.70
40932;DHT22;36257;46.052;12.540;2023-01-29T17:31:05;3.80;86.60
40932;DHT22;36257;46.052;12.540;2023-01-29T17:33:36;3.80;86.50
40932;DHT22;36257;46.052;12.540;2023-01-29T17:36:02;3.70;86.70
40932;DHT22;36257;46.052;12.540;2023-01-29T17:38:28;3.70;86.80
40932;DHT22;36257;46.052;12.540;2023-01-29T17:41:01;3.60;86.80
40932;DHT22;36257;46.052;12.540;2023-01-29T17:43:28;3.60;87.00
40932;DHT22;36257;46.052;12.540;2023-01-29T17:45:53;3.50;87.10
40932;DHT22;36257;46.052;12.540;2023-01-29T17:48:25;3.40;87.40
40932;DHT22;36257;46.052;12.540;2023-01-29T17:50:53;3.40;87.70
40932;DHT22;36257;46.052;12.540;2023-01-29T17:53:21;3.40;87.80
40932;DHT22;36257;46.052;12.540;2023-01-29T17:55:47;3.50;87.60
40932;DHT22;36257;46.052;12.540;2023-01-29T17:58:24;3.40;87.60
40932;DHT22;36257;46.052;12.540;2023-01-29T18:00:50;3.30;87.70
40932;DHT22;36257;46.052;12.540;2023-01-29T18:03:16;3.30;87.90
40932;DHT22;36257;46.052;12.540;2023-01-29T18:05:43;3.20;88.10
40932;DHT22;36257;46.052;12.540;2023-01-29T18:08:21;3.10;88.50
40932;DHT22;36257;46.052;12.540;2023-01-29T18:10:50;3.10;89.00
40932;DHT22;36257;46.052;12.540;2023-01-29T18:13:16;3.00;89.20
40932;DHT22;36257;46.052;12.540;2023-01-29T18:15:41;3.00;89.40
40932;DHT22;36257;46.052;12.540;2023-01-29T18:18:17;2.90;89.60
40932;DHT22;36257;46.052;12.540;2023-01-29T18:20:43;2.90;89.90
40932;DHT22;36257;46.052;12.540;2023-01-29T18:23:09;2.90;89.90
40932;DHT22;36257;46.052;12.540;2023-01-29T18:25:35;2.90;90.00
40932;DHT22;36257;46.052;12.540;2023-01-29T18:28:02;2.90;89.60
40932;DHT22;36257;46.052;12.540;2023-01-29T18:30:28;2.90;89.50